This is the latest recevied weather packets stored in our database for station/object NW1E. If no packets are shown the sender has not sent any weather packets the latest 10 day(s).
| Time | Temp. | Humidity | Pressure | Rain* | Wind** | Luminosity | Snow |
|---|---|---|---|---|---|---|---|
| 1777404939 | 33.89° C | 37% | 1017.1 hPa | 0 mm | - | 702 W/m² | - |
| 1777404339 | 33.33° C | 37% | 1017.1 hPa | 0 mm | - | 783 W/m² | - |
| 1777403440 | 33.89° C | 39% | 1017.2 hPa | 0 mm | - | 883 W/m² | - |
| 1777402716 | 33.33° C | 41% | 1017.5 hPa | 0 mm | - | 928 W/m² | - |
| 1777398940 | 32.78° C | 43% | 1017.9 hPa | 0 mm | - | 992 W/m² | - |
| 1777397736 | 32.78° C | 41% | 1018.2 hPa | 0 mm | - | 992 W/m² | - |
| 1777393703 | 31.67° C | 51% | 1019 hPa | 0 mm | - | 849 W/m² | - |
| 1777392313 | 30.56° C | 55% | 1019.1 hPa | 0 mm | - | 943 W/m² | - |
| 1777391705 | 30.56° C | 62% | 1019.1 hPa | 0 mm | - | 939 W/m² | - |
| 1777390482 | 30° C | 62% | 1019.1 hPa | 0 mm | - | 874 W/m² | - |
| 1777386875 | 27.78° C | 70% | 1019.1 hPa | 0 mm | - | 725 W/m² | - |
| 1777384957 | 26.67° C | 74% | 1019.2 hPa | 0 mm | - | 612 W/m² | - |
| 1777383875 | 25.56° C | 78% | 1019.1 hPa | 0 mm | - | 570 W/m² | - |
| 1777383272 | 25° C | 80% | 1019.1 hPa | 0 mm | - | 276 W/m² | - |
| 1777381154 | 23.33° C | 87% | 1019 hPa | 0 mm | - | 408 W/m² | - |
| 1777379344 | 21.67° C | 92% | 1018.8 hPa | 0 mm | - | 211 W/m² | - |
| 1777378444 | 20.56° C | 93% | 1018.7 hPa | 0 mm | - | 53 W/m² | - |
| 1777376893 | 19.44° C | 93% | 1018.5 hPa | 0 mm | - | 41 W/m² | - |
| 1777376045 | 19.44° C | 93% | 1018.4 hPa | 0 mm | - | 35 W/m² | - |
| 1777373644 | 19.44° C | 93% | 1018 hPa | 0 mm | - | 5 W/m² | - |
| 1777372625 | 19.44° C | 93% | 1017.8 hPa | 0 mm | - | 0 W/m² | - |
| 1777371424 | 19.44° C | 92% | 1017.7 hPa | 0 mm | - | 0 W/m² | - |
| 1777371126 | 19.44° C | 92% | 1017.5 hPa | 0 mm | - | 0 W/m² | - |
| 1777370344 | 19.44° C | 92% | 1017.5 hPa | 0 mm | - | 0 W/m² | - |
| 1777369145 | 19.44° C | 92% | 1017.2 hPa | 0 mm | - | 0 W/m² | - |
* Rain latest hour (hover to see other rain measurements)
** Current wind speed in m/s (hover to see current wind gust speed)